Time;durP1;ratioP1;P1;durP2;ratioP2;P2;SDS_P1;SDS_P2;PMS_P1;PMS_P2;Temp;Humidity;BMP_temperature;BMP_pressure;BME280_temperature;BME280_humidity;BME280_pressure;Samples;Min_cycle;Max_cycle;Signal;HPM_P1;HPM_P2
2023/06/01 00:01:42;;;;;;;1.27;0.60;;;;;;;12.96;100.00;101906.53;5034331;28;20500;-60
2023/06/01 00:04:08;;;;;;;1.98;1.33;;;;;;;12.79;100.00;101895.13;5038262;28;20530;-59
2023/06/01 00:06:34;;;;;;;4.28;1.73;;;;;;;12.76;100.00;101895.47;5033009;28;20184;-56
2023/06/01 00:08:59;;;;;;;0.60;0.60;;;;;;;12.87;100.00;101898.56;5034289;28;20566;-55
2023/06/01 00:11:25;;;;;;;2.33;1.30;;;;;;;12.86;100.00;101896.09;5038343;28;20114;-59
2023/06/01 00:13:52;;;;;;;1.52;1.33;;;;;;;12.87;100.00;101895.09;5034539;28;20503;-61
2023/06/01 00:16:17;;;;;;;3.42;1.60;;;;;;;12.78;100.00;101890.81;5036033;28;20033;-60
2023/06/01 00:18:43;;;;;;;2.05;1.10;;;;;;;12.81;100.00;101898.44;5034606;28;20465;-58
2023/06/01 00:21:09;;;;;;;2.85;1.90;;;;;;;12.87;100.00;101893.25;5030126;28;20487;-53
2023/06/01 00:23:34;;;;;;;5.28;2.03;;;;;;;12.87;100.00;101890.59;5036259;28;20118;-60
2023/06/01 00:26:01;;;;;;;1.45;0.93;;;;;;;12.85;100.00;101889.09;5034607;28;20064;-56
2023/06/01 00:28:26;;;;;;;2.45;1.63;;;;;;;12.94;100.00;101887.25;5037798;28;20037;-61
2023/06/01 00:30:53;;;;;;;2.13;1.42;;;;;;;12.86;100.00;101891.59;5040764;28;20038;-54
2023/06/01 00:33:19;;;;;;;2.95;1.88;;;;;;;12.70;100.00;101886.34;5029926;28;20115;-54
2023/06/01 00:35:44;;;;;;;2.83;1.75;;;;;;;12.58;100.00;101898.34;5034401;28;20120;-57
2023/06/01 00:38:10;;;;;;;1.58;1.10;;;;;;;12.64;100.00;101894.97;5034852;28;20629;-58
2023/06/01 00:40:35;;;;;;;2.65;1.73;;;;;;;12.58;100.00;101895.69;5035896;28;20033;-60
2023/06/01 00:43:00;;;;;;;3.47;1.70;;;;;;;12.48;100.00;101887.88;5034167;28;20079;-62
2023/06/01 00:45:26;;;;;;;4.05;2.28;;;;;;;12.36;100.00;101890.03;5040589;28;20450;-55
2023/06/01 00:47:52;;;;;;;1.38;1.27;;;;;;;12.38;100.00;101892.53;5029671;28;20037;-59
2023/06/01 00:50:18;;;;;;;2.28;1.90;;;;;;;12.40;100.00;101887.88;5034769;28;20029;-56
2023/06/01 00:52:44;;;;;;;4.45;1.23;;;;;;;11.91;100.00;101880.75;5032836;28;20091;-61
2023/06/01 00:55:10;;;;;;;4.57;1.88;;;;;;;11.99;100.00;101886.06;5040860;28;20425;-56
2023/06/01 00:57:36;;;;;;;4.88;1.73;;;;;;;12.18;100.00;101881.41;5041702;28;20510;-58
2023/06/01 01:00:09;;;;;;;3.55;1.20;;;;;;;12.15;100.00;101893.22;5039339;28;20043;-54
2023/06/01 01:02:41;;;;;;;2.42;1.85;;;;;;;12.09;100.00;101885.09;5040167;28;20126;-53
2023/06/01 01:05:11;;;;;;;2.13;1.63;;;;;;;12.11;100.00;101873.28;5035992;28;20111;-55
2023/06/01 01:08:02;;;;;;;5.75;1.65;;;;;;;12.14;100.00;101880.09;5042485;28;20037;-59
2023/06/01 01:10:45;;;;;;;2.83;1.90;;;;;;;12.16;100.00;101880.78;5035899;28;20363;-53
2023/06/01 01:13:22;;;;;;;1.90;1.52;;;;;;;12.15;100.00;101884.41;5038485;28;20474;-57
2023/06/01 01:15:57;;;;;;;5.13;1.70;;;;;;;12.16;100.00;101883.44;5023023;28;20025;-54
2023/06/01 01:18:33;;;;;;;2.17;1.65;;;;;;;12.18;100.00;101871.63;5038106;28;20048;-55
2023/06/01 01:21:01;;;;;;;4.25;1.63;;;;;;;11.94;100.00;101872.44;5041705;28;20188;-59
2023/06/01 01:23:38;;;;;;;2.60;1.27;;;;;;;11.99;100.00;101888.72;5038724;28;20526;-54
2023/06/01 01:26:12;;;;;;;2.70;1.65;;;;;;;12.13;100.00;101883.75;5036275;28;20054;-57
2023/06/01 01:28:42;;;;;;;5.65;2.25;;;;;;;12.10;100.00;101884.91;5043384;28;20064;-58
2023/06/01 01:31:10;;;;;;;2.67;1.65;;;;;;;12.11;100.00;101885.75;5045618;28;20029;-59
2023/06/01 01:33:36;;;;;;;7.57;3.15;;;;;;;11.99;100.00;101880.75;5040922;28;20078;-58
2023/06/01 01:36:03;;;;;;;8.35;3.08;;;;;;;11.98;100.00;101887.09;5040462;28;20037;-54
2023/06/01 01:38:29;;;;;;;9.40;2.50;;;;;;;12.08;100.00;101884.28;5032616;28;20036;-56
2023/06/01 01:40:55;;;;;;;6.97;3.03;;;;;;;12.08;100.00;101884.28;5035348;28;20569;-56
2023/06/01 01:43:22;;;;;;;4.30;2.25;;;;;;;12.13;100.00;101886.41;5039981;28;20437;-58
2023/06/01 01:45:57;;;;;;;3.08;1.50;;;;;;;12.20;100.00;101888.22;5036302;28;20368;-55
2023/06/01 01:48:31;;;;;;;3.03;1.92;;;;;;;12.24;100.00;101891.41;5034660;28;20029;-54
2023/06/01 01:51:09;;;;;;;2.40;1.33;;;;;;;12.22;100.00;101883.56;5034682;28;20037;-56
2023/06/01 01:53:38;;;;;;;1.52;1.33;;;;;;;12.19;100.00;101886.56;5036261;28;20046;-52
2023/06/01 01:56:04;;;;;;;2.65;2.08;;;;;;;12.12;100.00;101884.75;5019774;28;20132;-56
2023/06/01 01:58:30;;;;;;;5.28;1.52;;;;;;;12.08;100.00;101886.06;5033712;28;20603;-58
2023/06/01 02:00:56;;;;;;;2.70;1.98;;;;;;;11.98;100.00;101881.78;5040131;28;20206;-57
2023/06/01 02:03:22;;;;;;;5.47;2.55;;;;;;;11.79;100.00;101874.06;5035736;28;20069;-62
2023/06/01 02:05:47;;;;;;;2.00;1.70;;;;;;;11.79;100.00;101879.38;5035760;28;20134;-55
2023/06/01 02:08:13;;;;;;;3.95;2.15;;;;;;;11.66;100.00;101876.38;5034896;28;20040;-56
2023/06/01 02:10:40;;;;;;;2.35;1.77;;;;;;;11.65;100.00;101872.91;5028944;28;20025;-59
2023/06/01 02:13:06;;;;;;;5.25;2.42;;;;;;;11.73;100.00;101867.59;5038449;28;20413;-56
2023/06/01 02:15:31;;;;;;;3.58;1.63;;;;;;;11.88;100.00;101867.81;5039716;28;20116;-55
2023/06/01 02:17:56;;;;;;;6.30;2.47;;;;;;;11.84;100.00;101870.94;5024352;28;20418;-58
2023/06/01 02:20:21;;;;;;;8.55;2.13;;;;;;;11.86;100.00;101871.59;5036457;28;20040;-60
2023/06/01 02:22:47;;;;;;;4.45;1.58;;;;;;;11.84;100.00;101874.41;5044679;28;20060;-54
2023/06/01 02:25:12;;;;;;;2.40;2.20;;;;;;;11.76;100.00;101872.56;5034567;28;20038;-58
2023/06/01 02:27:37;;;;;;;6.57;2.25;;;;;;;11.60;100.00;101874.41;5038227;28;20036;-57
2023/06/01 02:30:06;;;;;;;3.17;1.67;;;;;;;11.54;100.00;101867.91;5038373;28;20030;-53
2023/06/01 02:32:32;;;;;;;3.33;1.48;;;;;;;11.55;100.00;101873.06;5037858;28;20807;-58
2023/06/01 02:34:58;;;;;;;1.25;1.02;;;;;;;11.64;100.00;101862.44;5037681;28;20060;-59
2023/06/01 02:37:23;;;;;;;1.40;1.23;;;;;;;11.57;100.00;101863.09;5033060;28;20225;-55
2023/06/01 02:39:48;;;;;;;3.90;1.52;;;;;;;11.55;100.00;101865.09;5027656;28;20036;-55
2023/06/01 02:42:14;;;;;;;2.10;1.60;;;;;;;11.57;100.00;101859.63;5039027;28;20229;-58
2023/06/01 02:44:39;;;;;;;2.55;1.33;;;;;;;11.61;100.00;101860.94;5037915;28;20032;-55
2023/06/01 02:47:05;;;;;;;3.75;1.92;;;;;;;11.69;100.00;101857.47;5034214;28;20594;-50
2023/06/01 02:49:30;;;;;;;5.82;2.22;;;;;;;11.75;100.00;101860.28;5031011;28;20052;-53
2023/06/01 02:51:56;;;;;;;3.65;1.63;;;;;;;11.83;100.00;101859.47;5038122;28;20079;-50
2023/06/01 02:54:21;;;;;;;4.95;1.67;;;;;;;11.76;100.00;101858.47;5038582;28;20029;-55
2023/06/01 02:56:46;;;;;;;3.05;1.95;;;;;;;11.79;100.00;101860.78;5041192;28;20482;-55
2023/06/01 02:59:12;;;;;;;2.28;1.70;;;;;;;11.70;100.00;101852.00;5022582;28;20041;-53
2023/06/01 03:01:37;;;;;;;5.75;2.70;;;;;;;11.66;100.00;101855.13;5034621;28;20037;-53
2023/06/01 03:04:07;;;;;;;3.63;1.25;;;;;;;11.68;100.00;101853.97;5040868;28;20558;-53
2023/06/01 03:06:36;;;;;;;7.75;2.10;;;;;;;11.66;100.00;101849.81;5035330;28;20060;-54
2023/06/01 03:09:01;;;;;;;2.40;1.35;;;;;;;11.70;100.00;101851.16;5028221;28;20037;-49
2023/06/01 03:11:26;;;;;;;7.05;2.22;;;;;;;11.63;100.00;101842.19;5036416;28;20083;-51
2023/06/01 03:13:52;;;;;;;6.85;2.00;;;;;;;11.52;100.00;101838.03;5036898;28;20033;-55
2023/06/01 03:16:17;;;;;;;5.90;2.08;;;;;;;11.50;100.00;101842.66;5033405;28;20047;-60
2023/06/01 03:18:42;;;;;;;3.47;2.28;;;;;;;11.57;100.00;101844.50;5034018;28;20029;-53
2023/06/01 03:21:08;;;;;;;3.92;1.95;;;;;;;11.62;100.00;101849.34;5037923;28;20067;-52
2023/06/01 03:23:33;;;;;;;8.70;2.25;;;;;;;11.61;100.00;101846.81;5037742;28;20025;-56
2023/06/01 03:25:59;;;;;;;4.97;2.17;;;;;;;11.56;100.00;101850.81;5031723;28;20031;-55
2023/06/01 03:28:24;;;;;;;5.60;2.28;;;;;;;11.45;100.00;101852.94;5039392;28;20062;-52
2023/06/01 03:30:51;;;;;;;4.88;3.00;;;;;;;11.43;100.00;101847.78;5035219;28;20025;-53
2023/06/01 03:33:16;;;;;;;6.80;2.97;;;;;;;11.35;100.00;101851.25;5038986;28;20459;-56
2023/06/01 03:35:41;;;;;;;7.43;2.67;;;;;;;11.25;100.00;101855.06;5028072;28;20159;-48
2023/06/01 03:38:06;;;;;;;9.15;2.42;;;;;;;11.16;100.00;101843.59;5037744;28;20112;-55
2023/06/01 03:40:32;;;;;;;8.82;2.97;;;;;;;11.25;100.00;101855.06;5036789;28;20478;-55
2023/06/01 03:42:57;;;;;;;6.20;2.67;;;;;;;11.24;100.00;101854.22;5024027;28;20111;-55
2023/06/01 03:45:22;;;;;;;5.75;2.08;;;;;;;11.36;100.00;101860.06;5034306;28;20356;-55
2023/06/01 03:47:48;;;;;;;8.02;1.90;;;;;;;11.37;100.00;101856.41;5040540;28;20029;-54
2023/06/01 03:50:13;;;;;;;4.70;2.90;;;;;;;11.40;100.00;101845.47;5031502;28;20123;-51
2023/06/01 03:52:39;;;;;;;3.15;1.88;;;;;;;11.46;100.00;101844.84;5036253;28;20056;-54
2023/06/01 03:55:10;;;;;;;5.97;1.75;;;;;;;11.51;100.00;101844.31;5027377;28;20469;-52
2023/06/01 03:57:36;;;;;;;6.68;1.98;;;;;;;11.40;100.00;101847.28;5032580;28;20775;-52
2023/06/01 04:00:06;;;;;;;2.60;1.42;;;;;;;11.34;100.00;101851.44;5037561;28;20135;-53
2023/06/01 04:02:32;;;;;;;2.63;1.80;;;;;;;11.38;100.00;101839.47;5036734;28;20513;-53
2023/06/01 04:04:57;;;;;;;5.13;2.40;;;;;;;11.40;100.00;101840.16;5040842;28;20025;-53
2023/06/01 04:07:23;;;;;;;4.50;1.67;;;;;;;11.45;100.00;101837.84;5032153;28;20029;-53
2023/06/01 04:09:48;;;;;;;9.10;2.60;;;;;;;11.50;100.00;101843.50;5033378;28;20115;-52
2023/06/01 04:12:15;;;;;;;2.22;2.03;;;;;;;11.51;100.00;101845.16;5026131;28;20447;-58
2023/06/01 04:14:41;;;;;;;7.53;2.58;;;;;;;11.52;100.00;101838.84;5038596;28;20956;-55
2023/06/01 04:17:06;;;;;;;5.18;1.55;;;;;;;11.62;100.00;101840.53;5037837;28;20072;-54
2023/06/01 04:19:33;;;;;;;5.80;2.65;;;;;;;11.52;100.00;101838.84;5026517;28;20216;-53
2023/06/01 04:21:58;;;;;;;3.67;1.80;;;;;;;11.53;100.00;101843.16;5040946;28;20036;-54
2023/06/01 04:24:24;;;;;;;7.47;1.77;;;;;;;11.61;100.00;101838.84;5036349;28;20475;-55
2023/06/01 04:26:50;;;;;;;3.15;1.73;;;;;;;11.61;100.00;101844.16;5036924;28;20500;-55
2023/06/01 04:29:16;;;;;;;4.68;1.90;;;;;;;11.62;100.00;101828.06;5033649;28;20045;-56
2023/06/01 04:31:41;;;;;;;3.95;2.00;;;;;;;11.60;100.00;101835.38;5027372;28;20029;-57
2023/06/01 04:34:06;;;;;;;3.13;1.83;;;;;;;11.50;100.00;101838.19;5021198;28;20138;-57
2023/06/01 04:36:38;;;;;;;5.63;2.13;;;;;;;11.48;100.00;101839.34;5034737;28;20025;-53
2023/06/01 04:39:05;;;;;;;5.65;1.75;;;;;;;11.43;100.00;101847.78;5037676;28;20041;-59
2023/06/01 04:41:32;;;;;;;2.20;1.48;;;;;;;11.40;100.00;101842.81;5031664;28;20496;-57
2023/06/01 04:43:58;;;;;;;5.18;1.55;;;;;;;11.56;100.00;101844.66;5038586;28;20083;-56
2023/06/01 04:46:26;;;;;;;3.63;1.35;;;;;;;11.57;100.00;101846.34;5030584;28;20033;-54
2023/06/01 04:48:52;;;;;;;5.50;2.35;;;;;;;11.49;100.00;101838.38;5036659;28;20040;-50
2023/06/01 04:51:21;;;;;;;2.80;1.77;;;;;;;11.56;100.00;101842.00;5029210;28;20033;-56
2023/06/01 04:53:51;;;;;;;5.65;2.42;;;;;;;11.51;100.00;101841.66;5025255;28;20040;-56
2023/06/01 04:56:24;;;;;;;1.25;1.15;;;;;;;11.58;100.00;101845.31;5032874;28;20033;-57
2023/06/01 04:58:54;;;;;;;3.75;2.25;;;;;;;11.65;100.00;101842.84;5025622;28;20056;-53
2023/06/01 05:01:24;;;;;;;2.85;1.70;;;;;;;11.67;100.00;101843.50;5035886;28;20040;-57
2023/06/01 05:03:51;;;;;;;2.92;1.63;;;;;;;11.82;100.00;101838.38;5041935;28;20036;-58
2023/06/01 05:06:17;;;;;;;4.05;1.92;;;;;;;11.89;100.00;101839.41;5032961;28;20026;-61
2023/06/01 05:08:42;;;;;;;4.32;1.35;;;;;;;11.98;100.00;101839.25;5030982;28;20079;-54
2023/06/01 05:11:08;;;;;;;1.40;1.30;;;;;;;12.05;100.00;101844.69;5032369;28;20394;-52
2023/06/01 05:13:35;;;;;;;4.28;1.60;;;;;;;12.16;100.00;101847.03;5035404;28;20033;-56
2023/06/01 05:16:01;;;;;;;4.13;1.50;;;;;;;12.15;100.00;101845.34;5034510;28;20041;-52
2023/06/01 05:18:26;;;;;;;3.40;1.85;;;;;;;11.98;100.00;101843.72;5037542;28;20033;-55
2023/06/01 05:20:51;;;;;;;5.20;1.45;;;;;;;11.79;100.00;101850.97;5007854;28;20029;-59
2023/06/01 05:23:17;;;;;;;2.85;1.42;;;;;;;11.73;100.00;101842.84;5027517;28;20495;-54
2023/06/01 05:25:42;;;;;;;2.97;2.05;;;;;;;11.78;100.00;101843.19;5032504;28;20037;-52
2023/06/01 05:28:07;;;;;;;6.07;2.03;;;;;;;11.87;100.00;101842.22;5038473;28;20045;-52
2023/06/01 05:30:33;;;;;;;4.07;1.48;;;;;;;11.87;100.00;101846.69;5035396;28;20219;-53
2023/06/01 05:32:59;;;;;;;2.60;1.33;;;;;;;11.83;100.00;101838.22;5037918;28;20070;-53
2023/06/01 05:35:24;;;;;;;3.95;1.42;;;;;;;11.93;100.00;101835.44;5036672;28;20491;-54
2023/06/01 05:37:49;;;;;;;2.22;1.65;;;;;;;12.00;100.00;101836.41;5040693;28;20894;-53
2023/06/01 05:40:15;;;;;;;3.20;1.63;;;;;;;12.07;100.00;101847.19;5034585;28;20373;-55
2023/06/01 05:42:40;;;;;;;1.92;1.75;;;;;;;11.98;100.00;101836.59;5033077;28;20497;-51
2023/06/01 05:45:06;;;;;;;1.33;0.95;;;;;;;12.09;100.00;101837.25;5035770;28;20455;-54
2023/06/01 05:47:32;;;;;;;1.33;0.60;;;;;;;12.16;100.00;101835.56;5044446;28;20040;-52
2023/06/01 05:49:57;;;;;;;5.05;1.20;;;;;;;12.06;100.00;101840.25;5041768;28;20025;-49
2023/06/01 05:52:23;;;;;;;2.67;1.13;;;;;;;12.04;100.00;101829.75;5039157;28;20098;-55
2023/06/01 05:54:49;;;;;;;3.80;1.48;;;;;;;12.17;100.00;101831.91;5037093;28;20080;-53
2023/06/01 05:57:14;;;;;;;2.38;1.40;;;;;;;12.20;100.00;101832.38;5034416;28;20040;-55
2023/06/01 05:59:39;;;;;;;0.73;0.73;;;;;;;12.34;100.00;101828.22;5032299;28;20037;-52
2023/06/01 06:02:05;;;;;;;2.10;0.65;;;;;;;12.51;100.00;101839.63;5026902;28;20037;-58
2023/06/01 06:04:30;;;;;;;1.92;0.75;;;;;;;12.47;100.00;101833.00;5037195;28;20022;-58
2023/06/01 06:06:56;;;;;;;3.70;0.95;;;;;;;12.36;100.00;101836.00;5036268;28;20040;-52
2023/06/01 06:09:21;;;;;;;2.88;1.15;;;;;;;12.25;100.00;101834.53;5037162;28;20033;-55
2023/06/01 06:11:46;;;;;;;1.85;0.95;;;;;;;12.43;100.00;101835.16;5040947;28;20124;-57
2023/06/01 06:14:13;;;;;;;7.72;1.08;;;;;;;12.51;100.00;101838.81;5028713;28;20033;-53
2023/06/01 06:16:39;;;;;;;2.47;1.75;;;;;;;12.51;100.00;101836.97;5030398;28;20390;-53
2023/06/01 06:19:05;;;;;;;3.67;0.65;;;;;;;12.58;100.00;101829.97;5036746;28;20405;-53
2023/06/01 06:21:31;;;;;;;1.10;0.70;;;;;;;12.70;100.00;101830.44;5031614;28;20508;-57
2023/06/01 06:23:58;;;;;;;1.15;0.60;;;;;;;12.72;100.00;101823.09;5033281;28;20039;-57
2023/06/01 06:26:26;;;;;;;1.38;0.85;;;;;;;12.71;100.00;101824.13;5033501;28;20465;-52
2023/06/01 06:28:51;;;;;;;4.85;1.58;;;;;;;12.78;100.00;101830.41;5035844;28;20064;-55
2023/06/01 06:31:16;;;;;;;0.98;0.85;;;;;;;12.78;100.00;101826.94;5034316;28;20398;-57
2023/06/01 06:33:42;;;;;;;1.65;1.55;;;;;;;12.63;100.00;101826.81;5030913;28;20027;-54
2023/06/01 06:36:07;;;;;;;1.52;1.02;;;;;;;12.55;100.00;101827.66;5037007;28;20364;-59
2023/06/01 06:38:32;;;;;;;2.88;0.93;;;;;;;12.50;100.00;101832.66;5024462;28;20113;-60
2023/06/01 06:40:58;;;;;;;0.98;0.93;;;;;;;12.46;100.00;101820.69;5030703;28;20041;-54
2023/06/01 06:43:24;;;;;;;2.13;1.23;;;;;;;12.54;100.00;101830.50;5033681;28;20029;-59
2023/06/01 06:45:49;;;;;;;1.48;1.00;;;;;;;12.61;100.00;101831.47;5026928;28;20384;-55
2023/06/01 06:48:15;;;;;;;1.15;1.05;;;;;;;12.47;100.00;101822.38;5037486;28;20036;-57
2023/06/01 06:50:44;;;;;;;1.65;0.98;;;;;;;12.76;100.00;101816.44;5038188;28;20037;-58
2023/06/01 06:53:09;;;;;;;3.75;1.20;;;;;;;12.84;100.00;101832.38;5048226;28;20041;-56
2023/06/01 06:55:35;;;;;;;1.67;1.20;;;;;;;12.73;100.00;101826.63;5043701;28;20482;-57
2023/06/01 06:58:00;;;;;;;1.58;1.35;;;;;;;12.85;100.00;101828.69;5033406;28;20478;-52
2023/06/01 07:00:26;;;;;;;0.85;0.73;;;;;;;13.16;100.00;101819.91;5037574;28;20033;-53
2023/06/01 07:02:52;;;;;;;0.95;0.90;;;;;;;13.34;100.00;101824.16;5035535;28;20025;-58
2023/06/01 07:05:18;;;;;;;2.03;0.95;;;;;;;13.45;100.00;101818.41;5033140;28;20043;-59
2023/06/01 07:07:43;;;;;;;4.72;1.40;;;;;;;13.57;100.00;101824.16;5032995;28;20080;-55
2023/06/01 07:10:09;;;;;;;3.83;1.20;;;;;;;13.44;100.00;101820.25;5033865;28;20414;-59
2023/06/01 07:12:35;;;;;;;2.00;0.82;;;;;;;13.49;100.00;101825.88;5040689;28;20393;-58
2023/06/01 07:15:01;;;;;;;4.50;0.80;;;;;;;13.46;100.00;101822.75;5025646;28;20474;-62
2023/06/01 07:17:27;;;;;;;6.00;1.20;;;;;;;13.58;100.00;101825.81;5011308;28;20033;-61
2023/06/01 07:19:52;;;;;;;2.45;0.70;;;;;;;13.52;100.00;101832.69;5031285;28;20029;-60
2023/06/01 07:22:17;;;;;;;2.30;1.05;;;;;;;13.42;100.00;101832.09;5039668;28;20083;-58
2023/06/01 07:24:44;;;;;;;2.00;1.10;;;;;;;13.41;100.00;101833.09;5031199;28;20024;-56
2023/06/01 07:27:10;;;;;;;0.85;0.80;;;;;;;13.39;100.00;101835.94;5037957;28;20108;-60
2023/06/01 07:29:36;;;;;;;2.40;0.90;;;;;;;13.51;100.00;101831.03;5030651;28;20104;-61
2023/06/01 07:32:01;;;;;;;3.20;0.82;;;;;;;13.59;100.00;101832.81;5036890;28;20536;-59
2023/06/01 07:34:27;;;;;;;3.53;0.57;;;;;;;13.77;100.00;101835.19;5039582;28;20021;-59
2023/06/01 07:36:53;;;;;;;2.40;0.80;;;;;;;13.86;100.00;101828.75;5034958;28;20033;-56
2023/06/01 07:39:19;;;;;;;2.58;1.13;;;;;;;13.75;100.00;101840.69;5034421;28;20025;-58
2023/06/01 07:41:45;;;;;;;1.15;0.85;;;;;;;13.71;100.00;101848.22;5039437;28;20091;-56
2023/06/01 07:44:10;;;;;;;2.05;0.80;;;;;;;13.82;100.00;101840.81;5032790;28;20029;-57
2023/06/01 07:46:35;;;;;;;1.77;0.80;;;;;;;13.99;100.00;101834.31;5035153;28;20035;-58
2023/06/01 07:49:01;;;;;;;3.25;1.30;;;;;;;13.95;100.00;101841.84;5014249;28;20041;-58
2023/06/01 07:51:28;;;;;;;1.23;0.75;;;;;;;14.03;100.00;101835.63;5029421;28;20053;-57
2023/06/01 07:53:57;;;;;;;3.28;0.75;;;;;;;13.94;100.00;101840.19;5032011;28;20017;-56
2023/06/01 07:56:26;;;;;;;3.45;1.85;;;;;;;14.04;100.00;101836.44;5032472;28;20059;-59
2023/06/01 07:58:51;;;;;;;4.63;2.40;;;;;;;14.25;100.00;101838.41;5031137;28;20064;-61
2023/06/01 08:01:17;;;;;;;7.20;2.10;;;;;;;14.37;100.00;101842.28;5027773;28;20179;-58
2023/06/01 08:03:43;;;;;;;4.80;2.28;;;;;;;14.28;100.00;101844.22;5029291;28;20033;-61
2023/06/01 08:06:09;;;;;;;3.10;1.17;;;;;;;14.44;100.00;101848.56;5031422;28;20037;-59
2023/06/01 08:08:35;;;;;;;5.72;1.60;;;;;;;14.75;100.00;101842.22;5036389;28;20033;-55
2023/06/01 08:11:00;;;;;;;12.25;2.35;;;;;;;14.50;100.00;101837.13;5038552;28;20029;-63
2023/06/01 08:13:25;;;;;;;1.48;1.20;;;;;;;14.55;100.00;101839.28;5039120;28;20554;-57
2023/06/01 08:15:52;;;;;;;3.47;1.75;;;;;;;14.58;100.00;101837.06;5018613;28;20030;-54
2023/06/01 08:18:19;;;;;;;2.65;1.98;;;;;;;14.69;100.00;101832.28;5040194;28;20033;-62
2023/06/01 08:20:45;;;;;;;29.15;9.85;;;;;;;13.20;100.00;101845.19;5029892;28;20902;-57
2023/06/01 08:23:10;;;;;;;9.13;4.95;;;;;;;12.91;100.00;101860.94;5035939;28;20033;-56
2023/06/01 08:25:36;;;;;;;33.00;13.18;;;;;;;12.91;100.00;101861.81;5036399;28;20044;-59
2023/06/01 08:28:01;;;;;;;12.70;6.55;;;;;;;12.91;100.00;101861.81;5041037;28;20033;-57
2023/06/01 08:30:27;;;;;;;4.35;2.92;;;;;;;12.87;100.00;101858.63;5033279;28;20041;-63
2023/06/01 08:32:52;;;;;;;6.85;2.53;;;;;;;13.18;100.00;101857.84;5036904;28;20112;-62
2023/06/01 08:35:19;;;;;;;4.10;2.05;;;;;;;14.13;100.00;101848.69;5026959;28;20100;-58
2023/06/01 08:37:46;;;;;;;2.85;1.48;;;;;;;14.99;100.00;101849.94;5027444;28;20147;-54
2023/06/01 08:40:12;;;;;;;2.92;1.38;;;;;;;15.23;100.00;101842.59;5036353;28;20095;-52
2023/06/01 08:42:57;;;;;;;2.45;0.73;;;;;;;15.39;100.00;101838.88;5038910;28;20041;-54
2023/06/01 08:45:23;;;;;;;2.45;1.35;;;;;;;15.45;100.00;101830.91;5035578;28;20038;-53
2023/06/01 08:47:52;;;;;;;3.08;1.23;;;;;;;15.06;100.00;101836.66;5035698;28;20115;-62
2023/06/01 08:50:17;;;;;;;1.95;1.67;;;;;;;13.99;100.00;101844.97;5038048;28;20474;-53
2023/06/01 08:52:45;;;;;;;2.05;0.90;;;;;;;13.40;100.00;101845.59;5037011;28;20041;-53
2023/06/01 08:55:11;;;;;;;3.47;1.00;;;;;;;14.75;100.00;101840.38;5038763;28;20041;-60
2023/06/01 08:57:40;;;;;;;3.22;1.17;;;;;;;15.17;100.00;101838.00;5036072;28;20098;-59
2023/06/01 09:00:07;;;;;;;0.75;0.52;;;;;;;15.19;100.00;101841.31;5035250;28;20041;-59
2023/06/01 09:02:32;;;;;;;4.57;0.47;;;;;;;15.56;100.00;101837.59;5018071;28;20064;-56
2023/06/01 09:04:58;;;;;;;1.27;1.08;;;;;;;15.24;100.00;101837.06;5037925;28;20634;-57
2023/06/01 09:07:24;;;;;;;2.83;1.08;;;;;;;15.47;100.00;101833.41;5029284;28;20025;-56
2023/06/01 09:09:50;;;;;;;1.27;1.02;;;;;;;15.55;100.00;101835.13;5039205;28;20037;-63
2023/06/01 09:12:19;;;;;;;2.08;0.98;;;;;;;15.43;100.00;101824.94;5026804;28;20037;-60
2023/06/01 09:14:45;;;;;;;3.83;1.33;;;;;;;15.61;100.00;101829.00;5032811;28;20029;-57
2023/06/01 09:17:21;;;;;;;1.42;1.13;;;;;;;15.91;100.00;101819.84;5026458;28;20242;-64
2023/06/01 09:19:46;;;;;;;2.47;1.75;;;;;;;15.56;100.00;101824.22;5034212;28;20103;-61
2023/06/01 09:22:13;;;;;;;2.60;1.25;;;;;;;15.84;100.00;101824.31;5030929;28;20936;-55
2023/06/01 09:24:40;;;;;;;2.03;1.55;;;;;;;15.72;100.00;101825.88;5032000;28;20025;-59
2023/06/01 09:27:07;;;;;;;1.77;1.00;;;;;;;15.74;100.00;101815.78;5035407;28;20506;-59
2023/06/01 09:29:32;;;;;;;2.75;1.88;;;;;;;15.78;100.00;101818.91;5034859;28;20451;-56
2023/06/01 09:32:00;;;;;;;4.25;1.20;;;;;;;16.00;100.00;101817.03;5034809;28;20036;-63
2023/06/01 09:34:25;;;;;;;1.58;1.10;;;;;;;15.80;100.00;101817.72;5032629;28;20301;-61
2023/06/01 09:36:52;;;;;;;2.75;1.25;;;;;;;15.82;100.00;101825.53;5037039;28;20600;-63
2023/06/01 09:39:20;;;;;;;5.95;1.27;;;;;;;15.89;100.00;101821.88;5036069;28;20040;-58
2023/06/01 09:41:53;;;;;;;4.95;1.05;;;;;;;15.74;100.00;101822.97;5041444;28;20025;-60
2023/06/01 09:44:29;;;;;;;5.38;1.48;;;;;;;15.72;100.00;101823.19;5034892;28;20031;-62
2023/06/01 09:47:06;;;;;;;3.72;1.70;;;;;;;15.84;100.00;101828.84;5037606;28;20516;-64
2023/06/01 09:49:39;;;;;;;5.32;1.40;;;;;;;15.85;100.00;101827.81;5032513;28;20159;-65
2023/06/01 09:52:04;;;;;;;1.92;0.93;;;;;;;15.83;100.00;101817.31;5036542;28;20037;-58
2023/06/01 09:54:32;;;;;;;1.17;1.00;;;;;;;16.27;100.00;101818.88;5026628;28;20041;-52
2023/06/01 09:56:59;;;;;;;2.35;0.82;;;;;;;16.52;100.00;101816.56;5033496;28;20041;-52
2023/06/01 09:59:28;;;;;;;3.97;1.30;;;;;;;16.85;100.00;101812.41;5044043;28;20044;-62
2023/06/01 10:01:57;;;;;;;6.05;1.38;;;;;;;16.86;100.00;101814.88;5036099;28;20477;-55
2023/06/01 10:04:25;;;;;;;12.02;1.60;;;;;;;16.91;100.00;101819.63;5032964;28;20067;-56
2023/06/01 10:06:51;;;;;;;1.77;1.25;;;;;;;17.11;100.00;101811.66;5030064;28;20437;-58
2023/06/01 10:09:19;;;;;;;3.72;2.95;;;;;;;17.10;100.00;101821.56;5043821;28;20033;-58
2023/06/01 10:11:46;;;;;;;3.67;1.20;;;;;;;17.17;100.00;101814.38;5022917;28;20025;-55
2023/06/01 10:14:12;;;;;;;2.28;1.00;;;;;;;17.19;100.00;101817.69;5037678;28;20029;-57
2023/06/01 10:16:39;;;;;;;5.53;1.50;;;;;;;17.10;100.00;101824.22;5036488;28;20033;-65
2023/06/01 10:19:06;;;;;;;6.47;1.63;;;;;;;17.07;100.00;101821.97;5037150;28;20103;-59
2023/06/01 10:21:33;;;;;;;2.47;1.55;;;;;;;17.13;100.00;101820.31;5037767;28;20037;-58
2023/06/01 10:23:58;;;;;;;5.72;1.40;;;;;;;17.25;100.00;101815.22;5031792;28;20456;-63
2023/06/01 10:26:26;;;;;;;10.43;1.73;;;;;;;17.25;100.00;101809.84;5034979;28;20040;-57
2023/06/01 10:28:53;;;;;;;1.58;1.08;;;;;;;17.32;100.00;101810.66;5037729;28;20033;-57
2023/06/01 10:31:41;;;;;;;2.75;1.65;;;;;;;17.20;100.00;101813.97;5036785;28;20025;-59
2023/06/01 10:34:09;;;;;;;3.40;1.73;;;;;;;17.09;100.00;101800.31;5031672;28;20127;-61
2023/06/01 10:36:52;;;;;;;7.63;1.60;;;;;;;17.08;100.00;101818.25;5041276;28;20035;-64
2023/06/01 10:39:32;;;;;;;3.13;2.03;;;;;;;16.82;100.00;101826.19;5027339;28;20033;-59
2023/06/01 10:42:19;;;;;;;4.20;1.90;;;;;;;16.68;100.00;101830.63;5035602;28;20034;-57
2023/06/01 10:44:48;;;;;;;2.45;1.50;;;;;;;16.89;100.00;101827.88;5039646;28;20079;-64
2023/06/01 10:47:17;;;;;;;3.05;1.38;;;;;;;17.13;100.00;101820.31;5032984;28;20409;-60
2023/06/01 10:49:48;;;;;;;2.80;1.73;;;;;;;17.02;100.00;101819.06;5035487;28;20037;-64
2023/06/01 10:52:29;;;;;;;3.13;1.60;;;;;;;16.93;100.00;101821.06;5034254;28;20052;-58
2023/06/01 10:55:16;;;;;;;2.58;1.42;;;;;;;17.07;100.00;101827.31;5030212;28;20144;-64
2023/06/01 10:57:45;;;;;;;5.38;1.60;;;;;;;16.99;100.00;101824.81;5027490;28;20036;-61
2023/06/01 11:00:22;;;;;;;3.13;1.02;;;;;;;17.22;100.00;101814.59;5030316;28;20103;-60
2023/06/01 11:02:57;;;;;;;2.85;1.75;;;;;;;17.47;100.00;101814.00;5032837;28;20047;-57
2023/06/01 11:05:46;;;;;;;2.30;2.10;;;;;;;17.70;100.00;101820.84;5032431;28;20036;-60
2023/06/01 11:08:29;;;;;;;3.35;1.15;;;;;;;17.69;100.00;101811.16;5033930;28;20037;-59
2023/06/01 11:11:06;;;;;;;2.22;1.00;;;;;;;17.86;100.00;101817.75;5029632;28;20040;-54
2023/06/01 11:13:31;;;;;;;9.38;2.42;;;;;;;18.00;100.00;101811.38;5025662;28;20044;-57
2023/06/01 11:16:20;;;;;;;4.28;2.28;;;;;;;17.87;100.00;101808.69;5022548;28;20028;-58
2023/06/01 11:18:59;;;;;;;6.47;2.47;;;;;;;17.76;100.00;101807.44;5033436;28;20059;-62